Ashland, New Hampshire
Current Conditions -  °F | °C
As of 7:55 AM on Friday 19 Dec 2014 (Local Time) from K1P1 Reporting Station
Overcast Overcast  
Wind Chill: 23°   Ceiling: 2800
Heat Index: 29°   Visibility: 10mi
Dew Point: 25°   Wind: 6mph
Humidity: 85%   Direction: 320°NW
Pressure: 29.92"   Gusts: NA
Location:  43.7°N, 71.63°W
Report Text: K1P1 191255Z AUTO 32005KT 10SM BKN028 OVC033 M01/M04 A2992 RMK AO2 T10151038
Loading
Personal Weather Stations






























Interactive Weather Map New forecast layout! Learn more

10-Day Weather Forecast

Advertisements
Track Severe Weather on mobile